Time;durP1;ratioP1;P1;durP2;ratioP2;P2;SDS_P1;SDS_P2;PMS_P1;PMS_P2;Temp;Humidity;BMP_temperature;BMP_pressure;BME280_temperature;BME280_humidity;BME280_pressure;Samples;Min_cycle;Max_cycle;Signal;HPM_P1;HPM_P2
2022/07/07 00:01:36;;;;;;;3.63;1.73;;;16.40;99.90;;;;;;4842734;29;20050;-86
2022/07/07 00:04:02;;;;;;;3.03;1.10;;;16.40;99.90;;;;;;4826599;29;20495;-85
2022/07/07 00:06:29;;;;;;;3.08;0.90;;;16.40;99.90;;;;;;4826476;29;20049;-84
2022/07/07 00:08:55;;;;;;;1.50;0.70;;;16.40;99.90;;;;;;4826213;29;20187;-86
2022/07/07 00:11:25;;;;;;;0.82;0.55;;;16.40;99.90;;;;;;4826471;29;20133;-85
2022/07/07 00:13:51;;;;;;;1.23;0.70;;;16.40;99.90;;;;;;4826500;29;20110;-85
2022/07/07 00:16:18;;;;;;;1.60;0.85;;;16.40;99.90;;;;;;4842838;29;20102;-84
2022/07/07 00:18:44;;;;;;;2.00;1.20;;;16.40;99.90;;;;;;4826008;29;20049;-85
2022/07/07 00:21:10;;;;;;;2.25;0.90;;;16.60;99.90;;;;;;4842527;29;20488;-84
2022/07/07 00:23:36;;;;;;;4.10;0.80;;;16.40;99.90;;;;;;4826088;29;20098;-84
2022/07/07 00:26:02;;;;;;;2.92;0.90;;;16.40;99.90;;;;;;4842014;29;20114;-85
2022/07/07 00:28:27;;;;;;;3.33;0.90;;;16.40;99.90;;;;;;4825866;29;20092;-85
2022/07/07 00:30:53;;;;;;;2.40;0.70;;;16.40;99.90;;;;;;4826031;29;20101;-85
2022/07/07 00:33:19;;;;;;;3.85;0.88;;;16.30;99.90;;;;;;4842038;29;20054;-85
2022/07/07 00:35:45;;;;;;;5.70;1.10;;;16.30;99.90;;;;;;4842564;29;20395;-85
2022/07/07 00:38:11;;;;;;;3.95;0.80;;;16.40;99.90;;;;;;4842462;29;20050;-85
2022/07/07 00:40:37;;;;;;;1.42;0.70;;;16.40;99.90;;;;;;4825645;29;20080;-85
2022/07/07 00:43:03;;;;;;;2.47;0.90;;;16.30;99.90;;;;;;4842316;29;20057;-84
2022/07/07 00:45:28;;;;;;;2.33;0.60;;;16.40;99.90;;;;;;4842217;29;20053;-84
2022/07/07 00:47:54;;;;;;;3.50;0.70;;;16.40;99.90;;;;;;4842176;29;20062;-84
2022/07/07 00:50:20;;;;;;;0.80;0.38;;;16.20;99.90;;;;;;4825320;29;20038;-84
2022/07/07 00:52:47;;;;;;;1.15;0.52;;;16.30;99.90;;;;;;4842266;29;20060;-84
2022/07/07 00:55:13;;;;;;;1.35;0.60;;;16.20;99.90;;;;;;4825886;29;20125;-84
2022/07/07 00:57:38;;;;;;;0.90;0.40;;;16.20;99.90;;;;;;4842047;29;20125;-84
2022/07/07 01:00:10;;;;;;;2.50;0.55;;;16.20;99.90;;;;;;4841564;29;20591;-85
2022/07/07 01:02:36;;;;;;;0.65;0.50;;;16.20;99.90;;;;;;4842276;29;20050;-84
2022/07/07 01:05:05;;;;;;;0.88;0.35;;;16.10;99.90;;;;;;4825650;29;20062;-84
2022/07/07 01:07:32;;;;;;;4.22;0.43;;;16.20;99.90;;;;;;4842178;29;20050;-85
2022/07/07 01:09:59;;;;;;;1.08;0.50;;;16.10;99.90;;;;;;4825736;29;20057;-86
2022/07/07 01:12:25;;;;;;;1.85;0.50;;;16.10;99.90;;;;;;4841502;29;20046;-84
2022/07/07 01:14:52;;;;;;;2.38;0.73;;;16.40;99.90;;;;;;4841872;29;20065;-85
2022/07/07 01:17:17;;;;;;;1.63;0.55;;;16.10;99.90;;;;;;4841381;29;20048;-84
2022/07/07 01:19:43;;;;;;;1.55;0.60;;;16.20;99.90;;;;;;4810166;29;20053;-84
2022/07/07 01:22:15;;;;;;;3.83;0.70;;;16.10;99.90;;;;;;4841366;29;20053;-85
2022/07/07 01:24:41;;;;;;;1.13;0.60;;;16.40;99.90;;;;;;4825747;29;20058;-84
2022/07/07 01:27:08;;;;;;;3.63;0.90;;;16.10;99.90;;;;;;4841977;29;20365;-85
2022/07/07 01:29:48;;;;;;;3.38;0.70;;;16.10;99.90;;;;;;4825399;29;20054;-85
2022/07/07 01:32:15;;;;;;;2.05;0.60;;;16.00;99.90;;;;;;4842553;29;20137;-85
2022/07/07 01:34:44;;;;;;;1.10;0.50;;;16.10;99.90;;;;;;4841729;29;20449;-84
2022/07/07 01:37:10;;;;;;;1.00;0.50;;;16.00;99.90;;;;;;4843985;29;20058;-84
2022/07/07 01:39:36;;;;;;;2.95;0.60;;;16.00;99.90;;;;;;4845482;29;20501;-84
2022/07/07 01:42:03;;;;;;;0.88;0.40;;;16.00;99.90;;;;;;4845537;29;20054;-84
2022/07/07 01:44:33;;;;;;;2.08;0.40;;;16.00;99.90;;;;;;4845302;29;20046;-84
2022/07/07 01:46:59;;;;;;;1.20;0.45;;;16.00;99.90;;;;;;4829178;29;20082;-84
2022/07/07 01:49:27;;;;;;;2.20;0.63;;;16.00;99.90;;;;;;4845298;29;20046;-84
2022/07/07 01:51:52;;;;;;;2.00;0.68;;;16.50;99.90;;;;;;4845265;29;20125;-84
2022/07/07 01:54:18;;;;;;;2.75;0.70;;;16.00;99.90;;;;;;4844886;29;20041;-84
2022/07/07 01:56:45;;;;;;;0.60;0.40;;;16.00;99.90;;;;;;4845193;29;20045;-84
2022/07/07 01:59:11;;;;;;;2.35;0.68;;;16.00;99.90;;;;;;4845300;29;20442;-84
2022/07/07 02:01:37;;;;;;;1.35;0.50;;;16.00;99.90;;;;;;4844494;29;20038;-84
2022/07/07 02:04:02;;;;;;;1.15;0.45;;;16.00;99.90;;;;;;4844523;29;20054;-84
2022/07/07 02:06:28;;;;;;;0.75;0.50;;;16.00;99.90;;;;;;4845107;29;20046;-86
2022/07/07 02:08:54;;;;;;;3.25;0.60;;;16.00;99.90;;;;;;4844956;29;20056;-85
2022/07/07 02:11:20;;;;;;;1.40;0.70;;;16.00;99.90;;;;;;4844741;29;20480;-84
2022/07/07 02:13:49;;;;;;;1.33;0.40;;;16.00;99.90;;;;;;4844580;29;20123;-84
2022/07/07 02:16:17;;;;;;;3.92;0.60;;;16.00;99.90;;;;;;4844696;29;20419;-84
2022/07/07 02:18:44;;;;;;;1.38;0.55;;;16.10;99.90;;;;;;4844994;29;20054;-83
2022/07/07 02:21:11;;;;;;;4.07;0.60;;;16.00;99.90;;;;;;4844730;29;20593;-84
2022/07/07 02:23:38;;;;;;;2.88;0.40;;;16.00;99.90;;;;;;4844812;29;20065;-84
2022/07/07 02:26:05;;;;;;;0.47;0.30;;;16.00;99.90;;;;;;4844250;29;20094;-83
2022/07/07 02:28:30;;;;;;;2.45;0.60;;;15.90;99.90;;;;;;4844823;29;20057;-87
2022/07/07 02:30:57;;;;;;;1.73;0.30;;;16.60;99.90;;;;;;4846348;29;20054;-84
2022/07/07 02:33:23;;;;;;;4.72;0.50;;;15.90;99.90;;;;;;4828592;29;20050;-84
2022/07/07 02:35:50;;;;;;;4.38;0.52;;;16.00;99.90;;;;;;4844360;29;20572;-83
2022/07/07 02:38:16;;;;;;;3.50;0.50;;;16.00;99.90;;;;;;4844512;29;20049;-84
2022/07/07 02:40:43;;;;;;;3.28;0.60;;;16.00;99.90;;;;;;4844417;29;20128;-84
2022/07/07 02:43:15;;;;;;;1.38;0.35;;;16.00;99.90;;;;;;4844444;29;20054;-85
2022/07/07 02:45:43;;;;;;;1.75;0.38;;;16.00;99.90;;;;;;4844592;29;20520;-84
2022/07/07 02:48:10;;;;;;;1.58;0.30;;;16.00;99.90;;;;;;4843150;29;20054;-84
2022/07/07 02:50:39;;;;;;;0.38;0.20;;;16.00;99.90;;;;;;4844256;29;20049;-84
2022/07/07 02:53:07;;;;;;;2.67;0.52;;;16.00;99.90;;;;;;4827751;29;20049;-84
2022/07/07 02:55:33;;;;;;;2.10;0.45;;;16.00;99.90;;;;;;4844020;29;20383;-84
2022/07/07 02:58:00;;;;;;;1.85;0.32;;;16.00;99.90;;;;;;4844056;29;20052;-85
2022/07/07 03:00:27;;;;;;;2.60;0.45;;;15.90;99.90;;;;;;4826999;29;20496;-84
2022/07/07 03:02:53;;;;;;;0.93;0.30;;;16.00;99.90;;;;;;4827374;29;20046;-84
2022/07/07 03:05:20;;;;;;;1.30;0.40;;;15.90;99.90;;;;;;4844065;29;20136;-85
2022/07/07 03:07:46;;;;;;;5.25;1.80;;;15.90;99.90;;;;;;4843393;29;20050;-84
2022/07/07 03:10:12;;;;;;;1.33;0.52;;;15.90;99.90;;;;;;4843912;29;20129;-85
2022/07/07 03:12:37;;;;;;;2.90;0.60;;;16.00;99.90;;;;;;4827554;29;20405;-85
2022/07/07 03:15:03;;;;;;;5.20;0.50;;;16.00;99.90;;;;;;4843907;29;20053;-85
2022/07/07 03:17:29;;;;;;;7.25;1.33;;;16.00;99.90;;;;;;4843989;29;20499;-85
2022/07/07 03:19:55;;;;;;;5.45;0.50;;;16.10;99.90;;;;;;4826712;29;20060;-85
2022/07/07 03:22:20;;;;;;;1.45;0.40;;;16.20;99.90;;;;;;4843867;29;20046;-84
2022/07/07 03:24:46;;;;;;;3.38;0.40;;;16.20;99.90;;;;;;4827390;29;20053;-84
2022/07/07 03:27:12;;;;;;;5.57;0.75;;;16.10;99.90;;;;;;4839050;29;20416;-84
2022/07/07 03:29:37;;;;;;;3.35;0.50;;;16.00;99.90;;;;;;4831843;29;20093;-84
2022/07/07 03:32:04;;;;;;;2.83;0.45;;;16.00;99.90;;;;;;4843991;29;20054;-84
2022/07/07 03:34:30;;;;;;;5.45;0.63;;;15.90;99.90;;;;;;4844534;29;20054;-84
2022/07/07 03:36:55;;;;;;;5.20;0.47;;;15.90;99.90;;;;;;4844110;29;20046;-84
2022/07/07 03:39:21;;;;;;;3.85;0.60;;;15.90;99.90;;;;;;4828726;29;20276;-84
2022/07/07 03:41:47;;;;;;;6.35;0.55;;;15.90;99.90;;;;;;4843378;29;20475;-84
2022/07/07 03:44:13;;;;;;;3.67;0.30;;;15.80;99.90;;;;;;4827413;29;20057;-84
2022/07/07 03:46:39;;;;;;;2.53;0.20;;;15.90;99.90;;;;;;4827522;29;20429;-84
2022/07/07 03:49:04;;;;;;;1.73;0.30;;;15.90;99.90;;;;;;4812114;29;20042;-84
2022/07/07 03:51:30;;;;;;;4.03;0.40;;;16.20;99.90;;;;;;4827079;29;20110;-84
2022/07/07 03:53:56;;;;;;;1.75;0.20;;;15.90;99.90;;;;;;4843692;29;20507;-86
2022/07/07 03:56:21;;;;;;;2.03;0.20;;;15.90;99.90;;;;;;4843307;29;20149;-85
2022/07/07 03:58:50;;;;;;;5.60;1.60;;;15.90;99.90;;;;;;4843672;29;20038;-84
2022/07/07 04:01:19;;;;;;;8.80;0.52;;;15.90;99.90;;;;;;4842470;29;20077;-86
2022/07/07 04:03:44;;;;;;;7.35;0.68;;;16.00;99.90;;;;;;4842850;29;20080;-87
2022/07/07 04:06:10;;;;;;;1.92;0.28;;;16.00;99.90;;;;;;4842963;29;20118;-84
2022/07/07 04:08:36;;;;;;;3.88;1.45;;;16.00;99.90;;;;;;4843503;29;20045;-86
2022/07/07 04:11:02;;;;;;;5.80;0.45;;;15.90;99.90;;;;;;4843399;29;20125;-84
2022/07/07 04:13:28;;;;;;;4.47;0.85;;;15.80;99.90;;;;;;4842814;29;20138;-85
2022/07/07 04:15:56;;;;;;;7.15;0.63;;;15.70;99.90;;;;;;4843083;29;20496;-84
2022/07/07 04:18:21;;;;;;;3.65;0.40;;;15.70;99.90;;;;;;4826782;29;20088;-85
2022/07/07 04:20:47;;;;;;;6.93;0.82;;;15.80;99.90;;;;;;4842697;29;20081;-84
2022/07/07 04:23:13;;;;;;;6.43;0.88;;;15.70;99.90;;;;;;4842173;29;20041;-84
2022/07/07 04:25:38;;;;;;;2.22;0.52;;;15.60;99.90;;;;;;4842175;29;20403;-84
2022/07/07 04:28:04;;;;;;;6.72;0.60;;;15.60;99.90;;;;;;4826683;29;20054;-85
2022/07/07 04:30:30;;;;;;;10.30;0.60;;;15.60;99.90;;;;;;4842642;29;20052;-85
2022/07/07 04:32:56;;;;;;;4.15;0.60;;;15.70;99.90;;;;;;4842346;29;20060;-84
2022/07/07 04:35:22;;;;;;;3.20;0.57;;;15.60;99.90;;;;;;4842317;29;20457;-85
2022/07/07 04:37:48;;;;;;;6.20;1.23;;;15.70;99.90;;;;;;4842463;29;20412;-84
2022/07/07 04:40:13;;;;;;;3.28;0.60;;;15.70;99.90;;;;;;4842104;29;20058;-85
2022/07/07 04:42:39;;;;;;;5.38;0.77;;;15.60;99.90;;;;;;4830008;29;20404;-85
2022/07/07 04:45:05;;;;;;;5.65;0.90;;;15.50;99.90;;;;;;4836882;29;20046;-85
2022/07/07 04:47:31;;;;;;;9.07;0.70;;;15.50;99.90;;;;;;4825705;29;20068;-84
2022/07/07 04:49:57;;;;;;;2.78;0.50;;;15.50;99.90;;;;;;4842213;29;20524;-84
2022/07/07 04:52:22;;;;;;;4.32;0.93;;;15.50;99.90;;;;;;4825384;29;20050;-85
2022/07/07 04:54:48;;;;;;;8.02;1.60;;;15.50;99.90;;;;;;4824925;29;20441;-84
2022/07/07 04:57:14;;;;;;;8.50;0.68;;;15.50;99.90;;;;;;4842192;29;20128;-86
2022/07/07 04:59:40;;;;;;;4.82;0.57;;;16.00;99.90;;;;;;4825537;29;20050;-85
2022/07/07 05:02:06;;;;;;;6.10;0.63;;;15.60;99.90;;;;;;4842112;29;20045;-85
2022/07/07 05:04:32;;;;;;;4.05;0.70;;;15.60;99.90;;;;;;4842263;29;20065;-84
2022/07/07 05:06:58;;;;;;;4.78;0.70;;;15.40;99.90;;;;;;4825502;29;20054;-84
2022/07/07 05:09:24;;;;;;;7.57;1.00;;;16.00;99.90;;;;;;4842403;29;20053;-85
2022/07/07 05:11:50;;;;;;;6.82;0.80;;;15.80;99.90;;;;;;4842148;29;20152;-85
2022/07/07 05:14:16;;;;;;;3.20;0.63;;;15.70;99.90;;;;;;4842756;29;20187;-85
2022/07/07 05:16:43;;;;;;;4.82;0.60;;;15.80;99.90;;;;;;4826308;29;20081;-86
2022/07/07 05:19:09;;;;;;;5.82;0.80;;;15.80;99.90;;;;;;4810860;29;20050;-85
2022/07/07 05:21:35;;;;;;;6.40;0.73;;;15.60;99.90;;;;;;4841575;29;20130;-89
2022/07/07 05:24:00;;;;;;;5.35;1.00;;;15.70;99.90;;;;;;4825752;29;20518;-91
2022/07/07 05:26:26;;;;;;;3.83;0.70;;;15.60;99.90;;;;;;4826068;29;20083;-88
2022/07/07 05:28:52;;;;;;;5.07;0.73;;;15.60;99.90;;;;;;4826517;29;20141;-89
2022/07/07 05:31:17;;;;;;;4.38;0.52;;;15.60;99.90;;;;;;4842873;29;20058;-86
2022/07/07 05:33:43;;;;;;;4.32;0.77;;;15.60;99.90;;;;;;4830968;29;20112;-88
2022/07/07 05:36:09;;;;;;;5.60;0.80;;;15.60;99.90;;;;;;4853357;29;20056;-86
2022/07/07 05:38:35;;;;;;;4.40;0.82;;;15.60;99.90;;;;;;4833157;29;20057;-86
2022/07/07 05:41:01;;;;;;;9.27;0.60;;;15.70;99.90;;;;;;4828184;29;20050;-85
2022/07/07 05:43:27;;;;;;;4.95;0.60;;;15.70;99.90;;;;;;4823616;29;20054;-88
2022/07/07 05:45:54;;;;;;;3.72;0.80;;;15.60;99.90;;;;;;4834410;29;20054;-89
2022/07/07 05:48:20;;;;;;;7.43;0.70;;;15.80;99.90;;;;;;4843281;29;20046;-88
2022/07/07 05:50:45;;;;;;;6.20;0.55;;;15.90;99.90;;;;;;4827074;29;20065;-87
2022/07/07 05:53:11;;;;;;;3.08;0.60;;;15.80;99.90;;;;;;4827409;29;20065;-85
2022/07/07 05:55:37;;;;;;;3.75;0.70;;;15.80;99.90;;;;;;4829871;29;20061;-88
2022/07/07 05:58:03;;;;;;;4.90;0.50;;;15.90;99.90;;;;;;4826959;29;20445;-85
2022/07/07 06:00:29;;;;;;;5.18;0.60;;;15.90;99.90;;;;;;4844316;29;20046;-87
2022/07/07 06:02:55;;;;;;;5.53;0.60;;;16.00;99.90;;;;;;4827415;29;20050;-93
2022/07/07 06:05:22;;;;;;;3.13;0.60;;;16.00;99.90;;;;;;4845942;29;20080;-87
2022/07/07 06:07:48;;;;;;;3.72;0.80;;;16.00;99.90;;;;;;4844010;29;20060;-87
2022/07/07 06:10:14;;;;;;;4.47;0.50;;;16.10;99.90;;;;;;4810801;29;20372;-90
2022/07/07 06:12:40;;;;;;;4.75;0.80;;;16.10;99.90;;;;;;4840914;29;20099;-86
2022/07/07 06:15:07;;;;;;;1.67;0.32;;;16.00;99.90;;;;;;4842183;29;20133;-85
2022/07/07 06:17:55;;;;;;;9.18;2.00;;;15.90;99.90;;;;;;4828082;29;20084;-90
2022/07/07 06:24:02;;;;;;;4.32;0.57;;;16.10;99.90;;;;;;4863465;23;20056;-87
2022/07/07 06:26:27;;;;;;;5.38;0.57;;;16.10;99.90;;;;;;4863718;29;20050;-87
2022/07/07 06:28:53;;;;;;;3.58;0.40;;;16.30;99.90;;;;;;4863081;29;20530;-91
2022/07/07 06:31:19;;;;;;;4.70;0.90;;;16.40;99.90;;;;;;4846861;29;20392;-87
2022/07/07 06:33:44;;;;;;;5.35;0.65;;;16.50;99.90;;;;;;4846761;29;20085;-88
2022/07/07 06:36:10;;;;;;;5.03;0.60;;;16.50;99.90;;;;;;4863358;29;20041;-89
2022/07/07 06:38:36;;;;;;;4.68;0.60;;;16.50;99.90;;;;;;4862530;29;20056;-86
2022/07/07 06:41:02;;;;;;;4.30;0.40;;;16.50;99.90;;;;;;4846566;29;20061;-85
2022/07/07 06:43:28;;;;;;;2.75;0.50;;;16.50;99.90;;;;;;4846768;29;20092;-88
2022/07/07 06:45:54;;;;;;;6.43;0.47;;;16.40;99.90;;;;;;4863314;29;20053;-91
2022/07/07 06:48:20;;;;;;;3.63;0.45;;;16.60;99.90;;;;;;4863102;29;20517;-87
2022/07/07 06:50:46;;;;;;;2.95;0.30;;;16.70;99.90;;;;;;4846244;29;20051;-91
2022/07/07 06:53:12;;;;;;;2.92;0.50;;;16.80;99.90;;;;;;4846218;29;20105;-86
2022/07/07 06:55:38;;;;;;;4.78;1.10;;;17.00;99.90;;;;;;4846150;29;20057;-87
2022/07/07 06:58:08;;;;;;;4.63;0.40;;;17.10;99.90;;;;;;4846743;29;20057;-89
2022/07/07 07:00:38;;;;;;;3.17;0.30;;;17.30;99.90;;;;;;4846442;29;20190;-90
2022/07/07 07:03:03;;;;;;;2.47;0.30;;;17.40;99.90;;;;;;4846490;29;20050;-86
2022/07/07 07:05:29;;;;;;;7.50;0.55;;;17.50;99.90;;;;;;4863986;29;20104;-87
2022/07/07 07:07:55;;;;;;;1.90;0.20;;;17.60;99.90;;;;;;4861875;29;20504;-84
2022/07/07 07:10:21;;;;;;;6.30;0.47;;;17.60;99.90;;;;;;4860893;29;20045;-85
2022/07/07 07:12:46;;;;;;;4.03;0.30;;;17.70;99.90;;;;;;4862048;29;20053;-85
2022/07/07 07:15:12;;;;;;;1.23;0.20;;;17.70;99.90;;;;;;4862333;29;20045;-84
2022/07/07 07:17:38;;;;;;;3.97;0.30;;;17.80;99.90;;;;;;4862318;29;20049;-84
2022/07/07 07:20:05;;;;;;;2.63;0.40;;;17.70;99.90;;;;;;4845339;29;20063;-84
2022/07/07 07:22:40;;;;;;;3.53;0.20;;;17.50;99.90;;;;;;4861903;29;20110;-84
2022/07/07 07:25:07;;;;;;;2.08;0.32;;;17.40;99.90;;;;;;4862464;29;20053;-85
2022/07/07 07:27:34;;;;;;;1.08;0.17;;;17.30;99.90;;;;;;4860941;29;20069;-85
2022/07/07 07:30:00;;;;;;;1.85;0.20;;;17.20;99.90;;;;;;4861691;29;20057;-85
2022/07/07 07:32:26;;;;;;;0.88;0.20;;;17.10;99.90;;;;;;4845039;29;20051;-86
2022/07/07 07:34:51;;;;;;;0.52;0.10;;;17.30;99.90;;;;;;4861468;29;20133;-88
2022/07/07 07:37:17;;;;;;;3.50;0.22;;;17.00;99.90;;;;;;4861832;29;20061;-85
2022/07/07 07:39:43;;;;;;;3.10;0.30;;;17.10;99.90;;;;;;4861327;29;20060;-83
2022/07/07 07:42:09;;;;;;;1.45;0.20;;;17.00;99.90;;;;;;4861669;29;20054;-83
2022/07/07 07:47:19;;;;;;;1.48;0.40;;;16.90;99.90;;;;;;4861926;29;20056;-83
2022/07/07 07:49:44;;;;;;;2.60;0.35;;;17.20;99.90;;;;;;4844208;29;20045;-86
2022/07/07 07:52:10;;;;;;;2.15;0.17;;;17.40;99.90;;;;;;4861922;29;20058;-85
2022/07/07 07:54:36;;;;;;;1.00;0.30;;;17.60;99.90;;;;;;4861171;29;20072;-87
2022/07/07 07:57:02;;;;;;;5.93;0.50;;;17.70;99.90;;;;;;4861603;29;20061;-84
2022/07/07 07:59:27;;;;;;;0.45;0.30;;;17.60;99.90;;;;;;4861248;29;20093;-85
2022/07/07 08:01:53;;;;;;;2.25;0.10;;;17.40;99.90;;;;;;4861495;29;20502;-83
2022/07/07 08:04:19;;;;;;;0.73;0.10;;;17.30;99.90;;;;;;4861379;29;20045;-83
2022/07/07 08:06:44;;;;;;;2.15;0.20;;;17.30;99.90;;;;;;4844890;29;20061;-83
2022/07/07 08:09:10;;;;;;;2.58;0.30;;;17.20;99.90;;;;;;4861323;29;20053;-82
2022/07/07 08:11:36;;;;;;;1.83;0.20;;;17.20;99.90;;;;;;4861418;29;20053;-83
2022/07/07 08:14:02;;;;;;;2.97;0.28;;;17.70;99.90;;;;;;4861564;29;20460;-82
2022/07/07 08:16:28;;;;;;;1.58;0.20;;;17.90;99.90;;;;;;4861427;29;20531;-83
2022/07/07 08:18:54;;;;;;;3.63;0.25;;;18.00;99.90;;;;;;4861303;29;20048;-84
2022/07/07 08:21:19;;;;;;;3.85;0.43;;;18.10;99.90;;;;;;4861668;29;20100;-85
2022/07/07 08:23:46;;;;;;;6.00;0.77;;;18.20;99.90;;;;;;4844435;29;20098;-83
2022/07/07 08:26:12;;;;;;;2.83;0.50;;;18.40;99.90;;;;;;4844622;29;20089;-84
2022/07/07 08:28:38;;;;;;;2.63;0.55;;;18.40;99.90;;;;;;4844575;29;20141;-84
2022/07/07 08:31:06;;;;;;;2.33;0.40;;;18.30;99.90;;;;;;4861675;29;20045;-84
2022/07/07 08:33:32;;;;;;;4.07;0.50;;;18.40;99.90;;;;;;4861167;29;20080;-84
2022/07/07 08:35:58;;;;;;;8.95;0.60;;;18.10;99.90;;;;;;4861416;29;20061;-83
2022/07/07 08:38:24;;;;;;;3.25;0.43;;;18.00;99.90;;;;;;4861174;29;20049;-83
2022/07/07 08:40:51;;;;;;;2.72;0.43;;;17.80;99.90;;;;;;4844760;29;20057;-83
2022/07/07 08:43:17;;;;;;;3.78;0.40;;;17.70;99.90;;;;;;4861268;29;20429;-83
2022/07/07 08:45:43;;;;;;;3.75;0.50;;;17.80;99.90;;;;;;4844288;29;20056;-83
2022/07/07 08:48:08;;;;;;;6.07;0.70;;;17.90;99.90;;;;;;4862047;29;20050;-87
2022/07/07 08:50:37;;;;;;;3.47;0.43;;;18.10;99.90;;;;;;4862946;29;20046;-88
2022/07/07 08:53:04;;;;;;;4.03;0.88;;;18.10;99.90;;;;;;4861939;29;20037;-91
2022/07/07 08:55:31;;;;;;;7.20;1.70;;;18.10;99.90;;;;;;4862614;29;20053;-89
2022/07/07 08:57:58;;;;;;;1.17;0.50;;;18.20;99.90;;;;;;4862137;29;20058;-88
2022/07/07 09:00:23;;;;;;;5.75;0.50;;;18.50;99.90;;;;;;4846680;29;20049;-88
2022/07/07 09:02:49;;;;;;;2.63;0.40;;;18.60;99.90;;;;;;4860959;29;20041;-87
2022/07/07 09:05:15;;;;;;;5.45;0.70;;;18.50;99.90;;;;;;4860508;29;20076;-86
2022/07/07 09:07:49;;;;;;;2.05;0.30;;;18.40;99.90;;;;;;4844424;29;20050;-89
2022/07/07 09:10:27;;;;;;;0.98;0.30;;;18.20;99.90;;;;;;4860992;29;20059;-86
2022/07/07 09:12:53;;;;;;;2.60;0.20;;;18.10;99.90;;;;;;4829781;29;20068;-89
2022/07/07 09:15:19;;;;;;;2.63;0.30;;;18.00;99.90;;;;;;4844596;29;20061;-86
2022/07/07 09:17:45;;;;;;;8.43;1.08;;;18.10;99.90;;;;;;4861063;29;20055;-85
2022/07/07 09:20:12;;;;;;;3.05;0.30;;;18.00;99.90;;;;;;4844300;29;20060;-88
2022/07/07 09:22:48;;;;;;;2.72;0.57;;;18.30;99.90;;;;;;4863385;29;20060;-89
2022/07/07 09:25:16;;;;;;;4.20;0.77;;;18.50;99.90;;;;;;4864566;29;20407;-85
2022/07/07 09:28:06;;;;;;;1.50;0.30;;;18.60;99.90;;;;;;4861481;29;20090;-86
2022/07/07 09:30:37;;;;;;;2.38;0.45;;;18.60;99.90;;;;;;4843829;29;20124;-87
2022/07/07 09:33:14;;;;;;;2.05;0.30;;;18.50;99.90;;;;;;4860635;29;20105;-85
2022/07/07 09:38:28;;;;;;;2.20;0.38;;;18.40;99.90;;;;;;4860306;29;20553;-88
2022/07/07 09:40:58;;;;;;;1.95;0.10;;;18.40;99.90;;;;;;4860309;29;20054;-87
2022/07/07 09:43:24;;;;;;;3.67;0.30;;;18.40;99.90;;;;;;4860451;29;20503;-85
2022/07/07 09:46:05;;;;;;;2.15;0.50;;;18.50;99.90;;;;;;4860198;29;20052;-89
2022/07/07 09:48:32;;;;;;;3.03;0.35;;;18.50;99.90;;;;;;4860509;29;20380;-86
2022/07/07 09:51:25;;;;;;;2.42;0.30;;;18.50;99.90;;;;;;4860223;29;20398;-87
2022/07/07 09:54:00;;;;;;;2.83;0.43;;;18.50;99.90;;;;;;4860157;29;20439;-84
2022/07/07 09:56:32;;;;;;;8.57;0.60;;;18.70;99.90;;;;;;4862218;29;20055;-88
2022/07/07 09:58:59;;;;;;;3.60;0.40;;;18.90;99.90;;;;;;4849111;29;20514;-87
2022/07/07 10:02:04;;;;;;;1.85;0.60;;;18.80;99.90;;;;;;4850322;29;20057;-89
2022/07/07 10:04:40;;;;;;;3.25;0.40;;;18.60;99.90;;;;;;4824730;29;20069;-89
2022/07/07 10:07:26;;;;;;;2.40;0.50;;;18.50;99.90;;;;;;4810826;29;20137;-86
2022/07/07 10:10:09;;;;;;;7.22;0.50;;;17.60;99.90;;;;;;4822976;29;20034;-87
2022/07/07 10:16:02;;;;;;;5.50;0.60;;;18.00;99.90;;;;;;4787679;30;20051;-88
2022/07/07 10:18:30;;;;;;;4.82;0.47;;;17.90;99.90;;;;;;4772958;30;20117;-88
2022/07/07 10:21:10;;;;;;;3.15;0.45;;;18.00;99.90;;;;;;4764718;30;20097;-88
2022/07/07 10:23:39;;;;;;;9.70;1.35;;;17.90;99.90;;;;;;4755269;30;20072;-87
2022/07/07 10:26:10;;;;;;;12.50;1.33;;;18.00;99.90;;;;;;4769288;30;20501;-87
2022/07/07 10:28:54;;;;;;;11.60;2.33;;;18.00;99.90;;;;;;4754807;30;20056;-88
2022/07/07 10:31:25;;;;;;;11.68;0.90;;;17.90;99.90;;;;;;4755330;30;20058;-86
2022/07/07 10:34:03;;;;;;;8.05;0.90;;;17.80;99.90;;;;;;4755069;30;20151;-88
2022/07/07 10:36:50;;;;;;;7.13;1.08;;;17.80;99.90;;;;;;4770076;30;20105;-88
2022/07/07 10:39:21;;;;;;;6.18;0.73;;;18.00;99.90;;;;;;4758428;30;20105;-88
2022/07/07 10:42:14;;;;;;;5.60;1.05;;;17.90;99.90;;;;;;4772821;30;20156;-87
2022/07/07 10:44:41;;;;;;;4.43;0.93;;;18.00;99.90;;;;;;4788748;30;20111;-86
2022/07/07 10:47:16;;;;;;;3.70;0.57;;;18.00;99.90;;;;;;4773159;30;20077;-88
2022/07/07 10:49:50;;;;;;;6.25;0.65;;;18.00;99.90;;;;;;4772727;30;20413;-89
2022/07/07 10:52:28;;;;;;;4.68;0.55;;;18.10;99.90;;;;;;4809857;29;20058;-87
2022/07/07 10:54:55;;;;;;;7.90;0.90;;;18.20;99.90;;;;;;4845737;29;20487;-88
2022/07/07 10:57:25;;;;;;;4.82;0.90;;;18.30;99.90;;;;;;4862540;29;20050;-86
2022/07/07 11:00:01;;;;;;;4.78;0.75;;;18.50;99.90;;;;;;4830618;29;20080;-86
2022/07/07 11:02:30;;;;;;;5.72;0.55;;;18.60;99.90;;;;;;4845674;29;20063;-86
2022/07/07 11:05:00;;;;;;;11.57;0.90;;;18.50;99.90;;;;;;4862043;29;20041;-86
2022/07/07 11:07:28;;;;;;;5.43;0.52;;;18.40;99.90;;;;;;4862407;29;20444;-87
2022/07/07 11:10:04;;;;;;;13.80;1.65;;;18.40;99.90;;;;;;4844526;29;20057;-86
2022/07/07 11:12:48;;;;;;;5.88;0.88;;;18.40;99.90;;;;;;4862164;29;20049;-87
2022/07/07 11:15:22;;;;;;;11.80;0.85;;;18.20;99.90;;;;;;4845668;29;20057;-86
2022/07/07 11:18:07;;;;;;;3.83;0.68;;;18.30;99.90;;;;;;4845634;29;20054;-85
2022/07/07 11:20:33;;;;;;;8.35;0.75;;;18.30;99.90;;;;;;4845619;29;20058;-86
2022/07/07 11:23:08;;;;;;;7.47;0.60;;;18.40;99.90;;;;;;4845353;29;20061;-86
2022/07/07 11:25:34;;;;;;;2.83;0.47;;;18.30;99.90;;;;;;4845057;29;20041;-82
2022/07/07 11:28:04;;;;;;;4.75;0.63;;;18.40;99.90;;;;;;4860516;29;20064;-84
2022/07/07 11:30:30;;;;;;;4.40;0.50;;;18.70;99.90;;;;;;4846344;29;20395;-84
2022/07/07 11:32:58;;;;;;;8.38;0.50;;;19.00;99.90;;;;;;4845716;29;20061;-88
2022/07/07 11:35:31;;;;;;;4.05;1.05;;;19.20;99.90;;;;;;4845806;29;20068;-87
2022/07/07 11:37:58;;;;;;;4.18;0.60;;;19.20;99.90;;;;;;4862086;29;20406;-88
2022/07/07 11:40:32;;;;;;;4.57;0.50;;;19.30;99.90;;;;;;4845418;29;20102;-89
2022/07/07 11:43:01;;;;;;;3.88;0.60;;;19.30;99.90;;;;;;4861556;29;20052;-84
2022/07/07 11:45:31;;;;;;;5.47;0.60;;;19.30;99.90;;;;;;4862146;29;20041;-85
2022/07/07 11:48:03;;;;;;;3.35;0.60;;;19.30;99.90;;;;;;4862169;29;20046;-86
2022/07/07 11:50:31;;;;;;;4.43;0.70;;;19.20;99.90;;;;;;4860841;29;20117;-84
2022/07/07 11:53:01;;;;;;;4.82;0.50;;;19.40;99.90;;;;;;4861730;29;20048;-83
2022/07/07 11:55:28;;;;;;;6.00;0.50;;;19.60;99.90;;;;;;4845138;29;20057;-83
2022/07/07 11:57:59;;;;;;;3.88;0.82;;;19.70;99.90;;;;;;4861780;29;20054;-83
2022/07/07 12:00:33;;;;;;;6.22;0.90;;;19.80;99.90;;;;;;4861213;29;20052;-84
2022/07/07 12:03:00;;;;;;;11.43;0.80;;;19.60;99.90;;;;;;4861772;29;20046;-84
2022/07/07 12:05:28;;;;;;;6.20;0.70;;;19.50;99.90;;;;;;4861141;29;20049;-85
2022/07/07 12:08:05;;;;;;;4.85;0.82;;;19.50;99.90;;;;;;4862093;29;20049;-85
2022/07/07 12:10:52;;;;;;;8.43;0.88;;;19.50;99.90;;;;;;4864272;29;20049;-84
2022/07/07 12:13:18;;;;;;;5.97;1.00;;;19.70;99.90;;;;;;4862963;29;20128;-84
2022/07/07 12:15:49;;;;;;;5.80;0.90;;;19.80;99.90;;;;;;4845421;29;20042;-82
2022/07/07 12:18:39;;;;;;;4.35;0.80;;;19.90;99.90;;;;;;4863609;29;20045;-83
2022/07/07 12:21:08;;;;;;;7.35;1.10;;;19.80;99.90;;;;;;4863719;29;20065;-86
2022/07/07 12:23:39;;;;;;;3.45;0.77;;;20.10;99.90;;;;;;4835439;29;20136;-86
2022/07/07 12:26:26;;;;;;;4.53;0.50;;;19.80;99.90;;;;;;4826295;29;20134;-88
2022/07/07 12:28:58;;;;;;;5.38;0.60;;;19.80;99.90;;;;;;4808471;29;20046;-85
2022/07/07 12:31:24;;;;;;;6.80;0.95;;;19.60;99.90;;;;;;4823876;29;20054;-86
2022/07/07 12:33:50;;;;;;;3.55;0.52;;;19.40;99.90;;;;;;4824829;29;20129;-83
2022/07/07 12:36:26;;;;;;;6.63;0.70;;;19.30;99.90;;;;;;4823730;29;20464;-85
2022/07/07 12:38:55;;;;;;;4.70;0.70;;;19.30;99.90;;;;;;4824203;29;20408;-86
2022/07/07 12:41:24;;;;;;;5.93;0.63;;;19.20;99.90;;;;;;4824873;29;20038;-85
2022/07/07 12:43:50;;;;;;;7.28;0.85;;;19.00;99.90;;;;;;4823216;29;20577;-83
2022/07/07 12:46:16;;;;;;;5.57;0.80;;;19.10;99.90;;;;;;4824859;29;20115;-90
2022/07/07 12:48:50;;;;;;;12.13;0.82;;;18.80;99.90;;;;;;4823260;29;20050;-88
2022/07/07 12:51:22;;;;;;;5.90;1.05;;;18.70;99.90;;;;;;4823425;29;20054;-87
2022/07/07 12:53:48;;;;;;;3.67;0.60;;;18.40;99.90;;;;;;4808449;29;20058;-84
2022/07/07 12:56:15;;;;;;;5.57;0.70;;;18.30;99.90;;;;;;4823683;29;20108;-87
2022/07/07 12:58:48;;;;;;;5.18;0.70;;;18.30;99.90;;;;;;4824475;29;20061;-85
2022/07/07 13:01:23;;;;;;;5.63;0.90;;;18.50;99.90;;;;;;4823602;29;20072;-86
2022/07/07 13:03:55;;;;;;;4.82;0.75;;;18.70;99.90;;;;;;4824273;29;20050;-84